Michigan City, IN

4:09 PM CST on February 07, 2016 (GMT -0600)
Coolspring Township on 400N | | Change Station
CLOSE
Current Station
Personal Weather Station
Location: Michigan City, IN
Elevation: 643 ft
Nearby Weather Stations

Elev 643 ft 41.67 °N, 86.87 °W | Updated 4 seconds ago

Overcast
Overcast
45.7 °F
Feels Like 46 °F
N
0.0
Wind Variable Wind from SW
Gusts 11.0 mph

Today
High -- | Low -- °F
--% Chance of Precip.
Yesterday
High -- | Low -- °F
Precip. -- in
Pressure 29.75 in
Visibility 10.0 miles
Clouds Scattered Clouds 3300 ft
Overcast 9000 ft
Windchill 46 °F
Dew Point 38 °F
Humidity 74%
Rainfall 0.00 in
Snow Depth Not available.
6:53 AM 5:10 PM
Waning Crescent, 1% visible
METAR KMGC 072155Z AUTO 24012G18KT 10SM SCT033 OVC090 07/01 A2975 RMK AO2
Pressure 29.75 in
Visibility 10.0 miles
Clouds Scattered Clouds 3300 ft
Overcast 9000 ft
Windchill 46 °F
Dew Point 38 °F
Humidity 74%
Rainfall 0.00 in
Snow Depth Not available.
6:53 AM 5:10 PM
Waning Crescent, 1% visible
METAR KMGC 072155Z AUTO 24012G18KT 10SM SCT033 OVC090 07/01 A2975 RMK AO2

10-Day Weather Forecast

Almanac

Astronomy

Feb. 07, 2016 Rise Set
Actual Time
Civil Twilight
Nautical Twilight
Astronomical Twilight
Moon
Length of Visible Light
Length of Day
Tomorrow will be .
, % of the Moon is Illuminated

Today's Extremes

State Highs State Lows

Community

WunderPhotos

Upload Photos

1,891,304 photos uploaded!

WunderBlog® & News

Nearby

Air Quality

  Air Quality AQ Index Pollutant
Not available.

Snow Depth

Station Depth Elevation

Earthquake Activity

City Distance Mag. Time & Date
Minimum magnitude displayed is 2.5.

Coastal Water Temperatures

Place Temperature

Stations

Nearby Weather Stations

Station Location Temp. Windchill Dew Point Humidity Wind Precip. Elev Updated Type
                   

Watches & Warnings

There are currently no watches in effect.